createdAt,value
2022-12-01T00:01:02.944Z,11.70
2022-12-01T00:03:32.980Z,13.40
2022-12-01T00:06:01.153Z,12.75
2022-12-01T00:08:28.994Z,12.13
2022-12-01T00:10:55.534Z,11.75
2022-12-01T00:13:22.292Z,13.23
2022-12-01T00:15:48.678Z,11.20
2022-12-01T00:18:15.069Z,11.75
2022-12-01T00:20:41.400Z,12.50
2022-12-01T00:23:07.749Z,12.15
2022-12-01T00:25:34.119Z,12.93
2022-12-01T00:28:00.587Z,12.48
2022-12-01T00:30:26.968Z,11.82
2022-12-01T00:32:53.296Z,11.80
2022-12-01T00:35:19.692Z,11.40
2022-12-01T00:37:46.067Z,12.18
2022-12-01T00:40:13.046Z,12.45
2022-12-01T00:42:39.384Z,11.18
2022-12-01T00:45:06.329Z,11.23
2022-12-01T00:47:32.658Z,12.63
2022-12-01T00:49:59.047Z,12.48
2022-12-01T00:52:25.417Z,12.50
2022-12-01T00:54:51.743Z,11.40
2022-12-01T00:57:18.061Z,11.70
2022-12-01T00:59:44.372Z,12.65
2022-12-01T01:02:10.824Z,12.25
2022-12-01T01:04:37.575Z,10.88
2022-12-01T01:07:03.979Z,11.82
2022-12-01T01:09:31.759Z,11.40
2022-12-01T01:11:58.115Z,11.07
2022-12-01T01:14:24.549Z,11.88
2022-12-01T01:16:51.106Z,11.30
2022-12-01T01:19:17.908Z,12.60
2022-12-01T01:21:44.360Z,11.67
2022-12-01T01:24:10.727Z,10.77
2022-12-01T01:26:37.813Z,10.88
2022-12-01T01:29:09.142Z,10.73
2022-12-01T01:31:36.516Z,12.25
2022-12-01T01:34:03.745Z,11.87
2022-12-01T01:36:30.233Z,11.10
2022-12-01T01:38:56.727Z,12.43
2022-12-01T01:41:23.707Z,11.68
2022-12-01T01:43:59.027Z,11.13
2022-12-01T01:46:35.136Z,11.90
2022-12-01T01:49:08.195Z,11.40
2022-12-01T01:51:48.942Z,11.95
2022-12-01T01:54:32.988Z,11.68
2022-12-01T01:57:01.606Z,11.77
2022-12-01T01:59:43.961Z,11.47
2022-12-01T02:02:12.217Z,12.57
2022-12-01T02:04:42.134Z,11.38
2022-12-01T02:07:09.823Z,12.60
2022-12-01T02:09:36.530Z,12.73
2022-12-01T02:12:21.254Z,11.77
2022-12-01T02:15:10.590Z,11.30
2022-12-01T02:17:56.874Z,11.93
2022-12-01T02:20:26.348Z,11.70
2022-12-01T02:23:25.645Z,11.85
2022-12-01T02:26:10.872Z,12.73
2022-12-01T02:28:53.700Z,12.18
2022-12-01T02:31:46.087Z,11.88
2022-12-01T02:34:30.077Z,12.40
2022-12-01T02:37:35.236Z,11.45
2022-12-01T02:40:25.560Z,11.40
2022-12-01T02:43:23.016Z,12.43
2022-12-01T02:45:56.201Z,11.30
2022-12-01T02:48:30.196Z,11.43
2022-12-01T02:51:00.801Z,12.35
2022-12-01T02:53:27.262Z,13.03
2022-12-01T02:55:57.660Z,11.98
2022-12-01T02:58:24.201Z,12.85
2022-12-01T03:01:18.328Z,12.25
2022-12-01T03:03:50.738Z,12.00
2022-12-01T03:06:36.839Z,11.73
2022-12-01T03:09:33.505Z,12.38
2022-12-01T03:12:30.879Z,12.35
2022-12-01T03:15:13.094Z,12.35
2022-12-01T03:18:04.247Z,13.52
2022-12-01T03:20:54.283Z,12.03
2022-12-01T03:23:25.234Z,12.27
2022-12-01T03:25:54.503Z,14.05
2022-12-01T03:28:28.741Z,12.02
2022-12-01T03:31:00.464Z,13.65
2022-12-01T03:33:50.610Z,12.33
2022-12-01T03:36:25.476Z,12.30
2022-12-01T03:38:59.756Z,13.30
2022-12-01T03:41:35.293Z,11.95
2022-12-01T03:44:08.920Z,11.00
2022-12-01T03:46:41.170Z,12.80
2022-12-01T03:49:09.752Z,11.88
2022-12-01T03:51:50.560Z,12.65
2022-12-01T03:54:33.582Z,13.00
2022-12-01T03:57:05.332Z,12.43
2022-12-01T03:59:35.844Z,11.40
2022-12-01T04:02:02.398Z,11.38
2022-12-01T04:04:28.986Z,14.23
2022-12-01T04:06:55.383Z,12.80
2022-12-01T04:09:21.830Z,12.68
2022-12-01T04:12:06.911Z,13.00
2022-12-01T04:14:33.527Z,13.15
2022-12-01T04:16:59.978Z,11.77
2022-12-01T04:19:26.357Z,10.90
2022-12-01T04:21:52.740Z,12.73
2022-12-01T04:24:19.133Z,12.63
2022-12-01T04:26:46.101Z,12.15
2022-12-01T04:29:14.486Z,12.38
2022-12-01T04:31:41.078Z,12.50
2022-12-01T04:34:08.232Z,12.23
2022-12-01T04:36:35.256Z,11.97
2022-12-01T04:39:02.383Z,13.43
2022-12-01T04:41:29.703Z,13.00
2022-12-01T04:43:56.457Z,12.45
2022-12-01T04:46:24.349Z,12.00
2022-12-01T04:48:51.145Z,12.73
2022-12-01T04:51:18.230Z,12.38
2022-12-01T04:53:44.732Z,12.98
2022-12-01T04:56:11.306Z,12.43
2022-12-01T04:58:38.539Z,12.80
2022-12-01T05:01:11.890Z,12.43
2022-12-01T05:03:44.309Z,12.98
2022-12-01T05:06:17.187Z,13.02
2022-12-01T05:08:43.724Z,13.27
2022-12-01T05:11:12.249Z,12.93
2022-12-01T05:13:40.236Z,12.90
2022-12-01T05:16:14.126Z,11.63
2022-12-01T05:18:41.222Z,12.50
2022-12-01T05:21:11.084Z,12.13
2022-12-01T05:23:39.040Z,13.57
2022-12-01T05:26:07.720Z,11.73
2022-12-01T05:28:34.708Z,12.93
2022-12-01T05:31:01.436Z,13.43
2022-12-01T05:33:29.048Z,12.50
2022-12-01T05:35:55.727Z,12.32
2022-12-01T05:38:22.187Z,11.83
2022-12-01T05:40:52.631Z,13.35
2022-12-01T05:43:25.230Z,13.30
2022-12-01T05:45:55.412Z,11.50
2022-12-01T05:48:22.073Z,13.77
2022-12-01T05:50:48.552Z,12.37
2022-12-01T05:53:15.717Z,13.18
2022-12-01T05:55:42.380Z,12.90
2022-12-01T05:58:09.584Z,12.43
2022-12-01T06:00:43.729Z,13.32
2022-12-01T06:03:11.961Z,13.80
2022-12-01T06:05:38.403Z,12.93
2022-12-01T06:08:05.020Z,13.63
2022-12-01T06:10:31.415Z,14.00
2022-12-01T06:12:57.844Z,13.15
2022-12-01T06:15:24.410Z,12.10
2022-12-01T06:17:50.847Z,12.00
2022-12-01T06:20:17.339Z,13.77
2022-12-01T06:22:43.714Z,13.05
2022-12-01T06:25:11.004Z,13.38
2022-12-01T06:27:37.574Z,13.30
2022-12-01T06:30:05.386Z,13.15
2022-12-01T06:32:31.838Z,13.30
2022-12-01T06:34:58.261Z,12.50
2022-12-01T06:37:24.850Z,13.13
2022-12-01T06:39:52.501Z,13.20
2022-12-01T06:42:18.952Z,13.80
2022-12-01T06:44:46.234Z,13.75
2022-12-01T06:47:12.699Z,12.25
2022-12-01T06:49:39.181Z,13.38
2022-12-01T06:52:05.703Z,13.20
2022-12-01T06:54:32.121Z,13.93
2022-12-01T06:56:58.601Z,13.25
2022-12-01T06:59:26.120Z,12.55
2022-12-01T07:01:53.030Z,12.82
2022-12-01T07:04:19.743Z,13.30
2022-12-01T07:06:46.187Z,12.90
2022-12-01T07:09:12.622Z,14.10
2022-12-01T07:11:39.217Z,13.52
2022-12-01T07:14:05.984Z,13.40
2022-12-01T07:16:32.483Z,12.67
2022-12-01T07:18:59.968Z,13.63
2022-12-01T07:21:26.377Z,12.85
2022-12-01T07:23:52.861Z,14.20
2022-12-01T07:26:19.346Z,13.70
2022-12-01T07:28:45.913Z,13.17
2022-12-01T07:31:17.960Z,13.35
2022-12-01T07:33:44.604Z,13.48
2022-12-01T07:36:13.134Z,13.75
2022-12-01T07:38:40.234Z,13.95
2022-12-01T07:41:14.884Z,14.83
2022-12-01T07:43:41.687Z,14.43
2022-12-01T07:46:11.076Z,14.05
2022-12-01T07:48:38.966Z,14.32
2022-12-01T07:51:11.427Z,14.27
2022-12-01T07:53:38.299Z,13.03
2022-12-01T07:56:08.554Z,13.55
2022-12-01T07:58:35.847Z,14.35
2022-12-01T08:01:07.431Z,12.20
2022-12-01T08:03:34.011Z,13.07
2022-12-01T08:06:01.363Z,13.50
2022-12-01T08:08:27.905Z,12.57
2022-12-01T08:10:54.415Z,13.38
2022-12-01T08:13:23.098Z,14.57
2022-12-01T08:15:49.744Z,13.70
2022-12-01T08:18:16.152Z,14.13
2022-12-01T08:20:42.498Z,13.85
2022-12-01T08:23:08.948Z,12.75
2022-12-01T08:25:35.425Z,13.98
2022-12-01T08:28:02.121Z,13.70
2022-12-01T08:30:28.882Z,13.20
2022-12-01T08:32:57.092Z,14.80
2022-12-01T08:35:24.819Z,14.13
2022-12-01T08:37:54.256Z,13.45
2022-12-01T08:40:21.838Z,14.48
2022-12-01T08:42:48.234Z,13.63
2022-12-01T08:45:14.771Z,13.90
2022-12-01T08:47:41.174Z,13.55
2022-12-01T08:50:08.083Z,13.63
2022-12-01T08:52:35.037Z,15.10
2022-12-01T08:55:02.212Z,15.27
2022-12-01T08:57:31.999Z,13.80
2022-12-01T08:59:58.465Z,14.20
2022-12-01T09:02:25.155Z,13.48
2022-12-01T09:04:51.816Z,14.10
2022-12-01T09:07:24.624Z,14.43
2022-12-01T09:09:52.908Z,15.40
2022-12-01T09:12:19.653Z,12.65
2022-12-01T09:14:48.257Z,14.32
2022-12-01T09:17:16.071Z,15.07
2022-12-01T09:19:43.760Z,14.20
2022-12-01T09:22:11.352Z,13.98
2022-12-01T09:24:38.210Z,12.85
2022-12-01T09:27:05.461Z,14.00
2022-12-01T09:29:32.680Z,14.52
2022-12-01T09:32:00.457Z,15.63
2022-12-01T09:34:27.999Z,16.05
2022-12-01T09:36:57.679Z,13.63
2022-12-01T09:39:24.672Z,15.27
2022-12-01T09:42:01.497Z,14.30
2022-12-01T09:44:36.092Z,14.73
2022-12-01T09:47:12.527Z,14.52
2022-12-01T09:49:48.052Z,15.20
2022-12-01T09:52:17.899Z,14.45
2022-12-01T09:54:45.238Z,15.23
2022-12-01T09:57:18.135Z,14.80
2022-12-01T09:59:46.321Z,15.75
2022-12-01T10:02:36.286Z,15.25
2022-12-01T10:05:07.064Z,15.52
2022-12-01T10:07:40.356Z,16.60
2022-12-01T10:10:11.696Z,15.83
2022-12-01T10:12:40.703Z,15.77
2022-12-01T10:15:13.204Z,16.98
2022-12-01T10:17:52.855Z,15.52
2022-12-01T10:20:28.525Z,15.40
2022-12-01T10:23:30.367Z,14.50
2022-12-01T10:26:07.666Z,15.07
2022-12-01T10:28:58.023Z,14.05
2022-12-01T10:31:34.684Z,16.00
2022-12-01T10:34:16.958Z,15.77
2022-12-01T10:36:43.524Z,15.30
2022-12-01T10:39:18.928Z,15.52
2022-12-01T10:41:47.900Z,15.30
2022-12-01T10:44:15.349Z,14.68
2022-12-01T10:46:50.224Z,15.63
2022-12-01T10:49:18.309Z,14.23
2022-12-01T10:51:51.730Z,16.55
2022-12-01T10:54:19.149Z,15.82
2022-12-01T10:56:49.343Z,13.60
2022-12-01T10:59:48.197Z,14.90
2022-12-01T11:02:19.363Z,15.03
2022-12-01T11:04:55.350Z,15.82
2022-12-01T11:07:29.697Z,14.95
2022-12-01T11:10:07.463Z,13.75
2022-12-01T11:12:34.206Z,14.18
2022-12-01T11:15:01.947Z,14.13
2022-12-01T11:17:39.384Z,14.20
2022-12-01T11:20:29.512Z,13.15
2022-12-01T11:23:24.416Z,14.68
2022-12-01T11:26:23.717Z,15.27
2022-12-01T11:29:06.793Z,14.97
2022-12-01T11:31:38.281Z,13.82
2022-12-01T11:34:08.514Z,14.40
2022-12-01T11:36:38.806Z,14.82
2022-12-01T11:39:05.278Z,14.75
2022-12-01T11:41:37.852Z,14.17
2022-12-01T11:44:22.421Z,14.95
2022-12-01T11:47:01.646Z,15.43
2022-12-01T11:49:47.091Z,13.85
2022-12-01T11:52:36.459Z,14.05
2022-12-01T11:55:23.144Z,14.20
2022-12-01T11:57:52.625Z,14.13
2022-12-01T12:00:22.585Z,14.43
2022-12-01T12:03:00.856Z,14.07
2022-12-01T12:06:18.166Z,13.85
2022-12-01T12:09:16.277Z,12.80
2022-12-01T12:12:12.132Z,14.23
2022-12-01T12:14:46.520Z,13.70
2022-12-01T12:17:29.322Z,14.25
2022-12-01T12:20:29.960Z,13.40
2022-12-01T12:23:24.636Z,13.57
2022-12-01T12:26:12.596Z,13.48
2022-12-01T12:29:07.075Z,13.93
2022-12-01T12:32:05.933Z,13.25
2022-12-01T12:34:56.071Z,13.00
2022-12-01T12:37:48.863Z,12.87
2022-12-01T12:40:21.429Z,13.20
2022-12-01T12:43:16.315Z,13.60
2022-12-01T12:46:02.109Z,13.48
2022-12-01T12:48:36.060Z,13.15
2022-12-01T12:51:18.983Z,14.30
2022-12-01T12:53:54.798Z,15.00
2022-12-01T12:56:25.358Z,13.43
2022-12-01T12:58:54.340Z,13.13
2022-12-01T13:01:41.805Z,13.50
2022-12-01T13:04:17.663Z,12.67
2022-12-01T13:07:03.480Z,12.30
2022-12-01T13:09:45.799Z,14.23
2022-12-01T13:12:23.972Z,13.45
2022-12-01T13:15:01.454Z,13.40
2022-12-01T13:17:37.023Z,13.67
2022-12-01T13:20:07.344Z,13.55
2022-12-01T13:22:35.910Z,12.98
2022-12-01T13:25:03.983Z,12.93
2022-12-01T13:27:35.001Z,12.13
2022-12-01T13:30:01.867Z,12.87
2022-12-01T13:32:37.734Z,12.00
2022-12-01T13:35:22.480Z,12.55
2022-12-01T13:37:49.149Z,12.85
2022-12-01T13:40:29.452Z,11.90
2022-12-01T13:43:06.975Z,12.20
2022-12-01T13:45:37.302Z,12.88
2022-12-01T13:48:06.131Z,12.57
2022-12-01T13:50:55.170Z,13.40
2022-12-01T13:53:34.279Z,12.35
2022-12-01T13:56:06.056Z,12.57
2022-12-01T13:58:32.672Z,13.30
2022-12-01T14:01:21.277Z,13.27
2022-12-01T14:04:03.032Z,13.32
2022-12-01T14:06:46.394Z,12.48
2022-12-01T14:09:15.828Z,13.13
2022-12-01T14:11:56.980Z,13.13
2022-12-01T14:14:26.317Z,14.15
2022-12-01T14:16:58.894Z,13.57
2022-12-01T14:19:43.930Z,11.70
2022-12-01T14:22:32.079Z,11.37
2022-12-01T14:24:59.626Z,11.68
2022-12-01T14:27:54.472Z,12.10
2022-12-01T14:30:39.325Z,12.10
2022-12-01T14:33:39.785Z,11.25
2022-12-01T14:36:14.037Z,11.50
2022-12-01T14:38:40.803Z,11.27
2022-12-01T14:41:10.540Z,13.48
2022-12-01T14:43:59.521Z,11.77
2022-12-01T14:46:30.799Z,11.88
2022-12-01T14:48:58.607Z,10.80
2022-12-01T14:51:34.520Z,11.82
2022-12-01T14:54:06.556Z,11.52
2022-12-01T14:56:34.263Z,10.98
2022-12-01T14:59:13.682Z,12.20
2022-12-01T15:01:40.927Z,11.07
2022-12-01T15:04:07.390Z,10.85
2022-12-01T15:06:35.871Z,10.82
2022-12-01T15:09:33.076Z,10.80
2022-12-01T15:12:00.914Z,10.95
2022-12-01T15:14:35.583Z,11.10
2022-12-01T15:17:05.108Z,10.60
2022-12-01T15:19:33.478Z,11.95
2022-12-01T15:22:04.972Z,11.32
2022-12-01T15:24:33.903Z,10.80
2022-12-01T15:27:04.035Z,12.23
2022-12-01T15:29:54.671Z,11.95
2022-12-01T15:32:23.257Z,11.63
2022-12-01T15:34:55.885Z,11.95
2022-12-01T15:37:26.691Z,11.60
2022-12-01T15:40:47.791Z,11.37
2022-12-01T15:43:13.511Z,11.68
2022-12-01T15:45:50.529Z,10.70
2022-12-01T15:48:26.152Z,10.32
2022-12-01T15:51:17.054Z,10.73
2022-12-01T15:53:56.335Z,10.47
2022-12-01T15:56:34.729Z,10.57
2022-12-01T15:59:39.790Z,11.10
2022-12-01T16:02:21.426Z,11.57
2022-12-01T16:04:48.807Z,11.13
2022-12-01T16:07:15.866Z,10.40
2022-12-01T16:09:58.595Z,11.02
2022-12-01T16:12:27.572Z,10.60
2022-12-01T16:14:59.868Z,10.32
2022-12-01T16:17:46.028Z,10.10
2022-12-01T16:20:24.545Z,10.20
2022-12-01T16:22:58.829Z,9.85
2022-12-01T16:25:32.650Z,9.32
2022-12-01T16:27:59.729Z,9.02
2022-12-01T16:30:33.994Z,9.75
2022-12-01T16:33:06.692Z,9.60
2022-12-01T16:35:34.070Z,9.68
2022-12-01T16:38:11.833Z,9.48
2022-12-01T16:40:41.739Z,9.57
2022-12-01T16:43:14.027Z,9.30
2022-12-01T16:45:40.493Z,9.20
2022-12-01T16:48:09.424Z,9.50
2022-12-01T16:50:36.124Z,9.38
2022-12-01T16:53:02.542Z,9.68
2022-12-01T16:55:39.217Z,9.45
2022-12-01T16:58:05.759Z,8.57
2022-12-01T17:00:32.923Z,9.07
2022-12-01T17:02:59.986Z,9.43
2022-12-01T17:05:26.502Z,8.95
2022-12-01T17:07:53.204Z,9.57
2022-12-01T17:10:20.476Z,9.30
2022-12-01T17:12:46.981Z,9.10
2022-12-01T17:15:13.383Z,10.50
2022-12-01T17:17:39.886Z,10.90
2022-12-01T17:20:07.681Z,10.35
2022-12-01T17:22:34.617Z,10.17
2022-12-01T17:25:02.273Z,10.35
2022-12-01T17:27:29.603Z,10.32
2022-12-01T17:29:56.103Z,9.80
2022-12-01T17:32:22.573Z,9.80
2022-12-01T17:34:49.352Z,10.33
2022-12-01T17:37:20.667Z,10.40
2022-12-01T17:39:47.845Z,9.70
2022-12-01T17:42:14.289Z,10.65
2022-12-01T17:44:40.719Z,10.55
2022-12-01T17:47:07.381Z,10.13
2022-12-01T17:49:36.337Z,9.80
2022-12-01T17:52:04.762Z,10.43
2022-12-01T17:54:31.391Z,10.50
2022-12-01T17:56:57.833Z,10.43
2022-12-01T17:59:24.464Z,10.17
2022-12-01T18:01:50.925Z,10.15
2022-12-01T18:04:17.386Z,10.48
2022-12-01T18:06:44.242Z,10.93
2022-12-01T18:09:12.461Z,12.50
2022-12-01T18:11:38.900Z,11.00
2022-12-01T18:14:05.326Z,10.15
2022-12-01T18:16:32.366Z,11.80
2022-12-01T18:19:00.158Z,11.48
2022-12-01T18:21:27.896Z,12.35
2022-12-01T18:23:58.170Z,12.17
2022-12-01T18:26:25.584Z,10.95
2022-12-01T18:28:54.888Z,10.32
2022-12-01T18:31:21.439Z,10.57
2022-12-01T18:33:47.979Z,11.20
2022-12-01T18:36:18.236Z,10.67
2022-12-01T18:38:46.808Z,10.40
2022-12-01T18:41:13.849Z,10.10
2022-12-01T18:43:40.380Z,10.48
2022-12-01T18:46:07.228Z,10.55
2022-12-01T18:48:35.084Z,9.10
2022-12-01T18:51:03.862Z,9.20
2022-12-01T18:53:34.830Z,10.98
2022-12-01T18:56:05.694Z,11.35
2022-12-01T18:58:32.861Z,12.55
2022-12-01T19:01:00.651Z,13.63
2022-12-01T19:03:31.581Z,14.55
2022-12-01T19:05:58.420Z,12.52
2022-12-01T19:08:25.123Z,13.13
2022-12-01T19:10:59.523Z,12.43
2022-12-01T19:13:26.049Z,11.43
2022-12-01T19:15:52.522Z,10.98
2022-12-01T19:18:18.964Z,10.75
2022-12-01T19:20:45.418Z,10.48
2022-12-01T19:23:11.865Z,11.18
2022-12-01T19:25:38.396Z,11.80
2022-12-01T19:28:04.840Z,11.60
2022-12-01T19:30:31.409Z,11.35
2022-12-01T19:32:57.835Z,10.98
2022-12-01T19:35:24.271Z,10.68
2022-12-01T19:37:52.118Z,10.93
2022-12-01T19:40:18.917Z,12.35
2022-12-01T19:42:45.478Z,13.02
2022-12-01T19:45:11.878Z,12.50
2022-12-01T19:47:39.318Z,11.85
2022-12-01T19:50:06.275Z,12.23
2022-12-01T19:52:33.980Z,12.70
2022-12-01T19:55:00.373Z,15.65
2022-12-01T19:57:29.669Z,42.00
2022-12-01T19:59:56.056Z,33.40
2022-12-01T20:02:28.868Z,29.67
2022-12-01T20:04:56.569Z,19.58
2022-12-01T20:07:23.109Z,18.60
2022-12-01T20:09:50.686Z,21.98
2022-12-01T20:12:19.911Z,21.08
2022-12-01T20:14:46.426Z,19.50
2022-12-01T20:17:16.107Z,17.00
2022-12-01T20:19:42.621Z,14.77
2022-12-01T20:22:09.267Z,11.75
2022-12-01T20:24:41.328Z,13.65
2022-12-01T20:27:08.175Z,13.67
2022-12-01T20:29:35.152Z,13.18
2022-12-01T20:32:03.127Z,13.93
2022-12-01T20:34:32.817Z,15.50
2022-12-01T20:36:59.714Z,13.75
2022-12-01T20:39:27.154Z,12.67
2022-12-01T20:41:53.696Z,12.27
2022-12-01T20:44:20.221Z,12.18
2022-12-01T20:46:47.560Z,12.38
2022-12-01T20:49:16.180Z,13.13
2022-12-01T20:51:43.105Z,11.77
2022-12-01T20:54:27.741Z,11.60
2022-12-01T20:56:55.053Z,10.95
2022-12-01T20:59:22.793Z,10.88
2022-12-01T21:01:49.430Z,10.93
2022-12-01T21:04:15.866Z,11.10
2022-12-01T21:06:42.346Z,13.45
2022-12-01T21:09:08.776Z,13.93
2022-12-01T21:12:01.848Z,15.93
2022-12-01T21:14:35.342Z,13.07
2022-12-01T21:17:12.385Z,11.30
2022-12-01T21:20:01.778Z,11.90
2022-12-01T21:22:28.291Z,12.07
2022-12-01T21:25:07.520Z,12.18
2022-12-01T21:27:33.999Z,11.40
2022-12-01T21:30:00.715Z,11.73
2022-12-01T21:32:31.377Z,12.45
2022-12-01T21:35:07.459Z,11.65
2022-12-01T21:37:33.988Z,11.77
2022-12-01T21:40:00.405Z,12.27
2022-12-01T21:42:29.858Z,11.90
2022-12-01T21:44:56.800Z,13.35
2022-12-01T21:47:26.210Z,12.65
2022-12-01T21:49:55.984Z,13.25
2022-12-01T21:52:30.007Z,11.60
2022-12-01T21:55:02.238Z,13.87
2022-12-01T21:57:47.145Z,12.60
2022-12-01T22:00:28.125Z,14.00
2022-12-01T22:03:04.017Z,12.98
2022-12-01T22:05:36.677Z,12.50
2022-12-01T22:08:11.868Z,12.17
2022-12-01T22:11:04.541Z,13.40
2022-12-01T22:13:46.385Z,13.05
2022-12-01T22:16:25.679Z,12.50
2022-12-01T22:18:54.941Z,11.35
2022-12-01T22:21:32.031Z,11.90
2022-12-01T22:24:10.470Z,12.07
2022-12-01T22:26:38.507Z,12.45
2022-12-01T22:29:26.325Z,12.75
2022-12-01T22:32:11.134Z,14.15
2022-12-01T22:34:38.479Z,14.93
2022-12-01T22:37:30.864Z,16.00
2022-12-01T22:39:57.407Z,15.40
2022-12-01T22:42:31.119Z,15.52
2022-12-01T22:45:01.387Z,16.38
2022-12-01T22:47:32.460Z,15.47
2022-12-01T22:49:59.148Z,14.75
2022-12-01T22:52:30.222Z,15.55
2022-12-01T22:54:56.602Z,16.08
2022-12-01T22:57:32.933Z,17.42
2022-12-01T23:00:16.059Z,15.50
2022-12-01T23:02:42.812Z,15.90
2022-12-01T23:05:22.628Z,16.13
2022-12-01T23:07:50.398Z,16.45
2022-12-01T23:10:30.318Z,16.58
2022-12-01T23:13:01.023Z,18.23
2022-12-01T23:15:33.954Z,16.73
2022-12-01T23:18:21.957Z,16.23
2022-12-01T23:20:59.956Z,17.25
2022-12-01T23:23:29.380Z,16.77
2022-12-01T23:25:56.706Z,17.23
2022-12-01T23:28:24.596Z,16.35
2022-12-01T23:30:54.795Z,16.55
2022-12-01T23:33:28.985Z,17.77
2022-12-01T23:36:04.493Z,17.15
2022-12-01T23:38:42.244Z,17.27
2022-12-01T23:41:33.085Z,16.45
2022-12-01T23:44:03.564Z,17.98
2022-12-01T23:46:30.176Z,16.55
2022-12-01T23:49:01.244Z,17.02
2022-12-01T23:51:45.266Z,17.93
2022-12-01T23:54:27.630Z,18.13
2022-12-01T23:56:57.002Z,18.95
2022-12-01T23:59:24.639Z,19.33
